createdAt,value
2023-09-16T00:00:37.076Z,96235.97
2023-09-16T00:03:23.656Z,96238.63
2023-09-16T00:06:14.119Z,96230.72
2023-09-16T00:09:00.337Z,96225.44
2023-09-16T00:11:46.561Z,96232.53
2023-09-16T00:14:32.404Z,96240.25
2023-09-16T00:17:19.315Z,96237.41
2023-09-16T00:20:16.434Z,96235.25
2023-09-16T00:23:06.692Z,96236.28
2023-09-16T00:25:53.509Z,96235.91
2023-09-16T00:28:41.571Z,96239.16
2023-09-16T00:31:28.620Z,96226.63
2023-09-16T00:34:17.266Z,96229.88
2023-09-16T00:37:04.395Z,96226.44
2023-09-16T00:39:53.352Z,96227.06
2023-09-16T00:42:40.147Z,96226.22
2023-09-16T00:45:26.737Z,96229.69
2023-09-16T00:48:16.338Z,96224.22
2023-09-16T00:51:04.168Z,96217.16
2023-09-16T00:53:51.824Z,96205.44
2023-09-16T00:56:40.475Z,96214.97
2023-09-16T00:59:27.743Z,96209.72
2023-09-16T01:02:16.385Z,96216.59
2023-09-16T01:05:06.508Z,96211.31
2023-09-16T01:07:53.636Z,96213.78
2023-09-16T01:10:42.705Z,96208.88
2023-09-16T01:13:29.640Z,96199.50
2023-09-16T01:16:41.743Z,96207.63
2023-09-16T01:19:43.755Z,96194.63
2023-09-16T01:22:30.160Z,96196.25
2023-09-16T01:25:17.747Z,96201.34
2023-09-16T01:28:04.623Z,96199.34
2023-09-16T01:30:52.132Z,96195.50
2023-09-16T01:33:49.508Z,96195.13
2023-09-16T01:36:38.188Z,96193.13
2023-09-16T01:39:26.939Z,96184.00
2023-09-16T01:42:14.821Z,96189.50
2023-09-16T01:45:03.786Z,96184.38
2023-09-16T01:47:50.410Z,96186.22
2023-09-16T01:50:38.032Z,96185.22
2023-09-16T01:53:24.611Z,96174.47
2023-09-16T01:56:11.015Z,96179.59
2023-09-16T01:58:58.145Z,96176.53
2023-09-16T02:01:46.608Z,96172.09
2023-09-16T02:04:32.959Z,96160.09
2023-09-16T02:07:20.118Z,96164.78
2023-09-16T02:10:07.155Z,96163.16
2023-09-16T02:12:54.206Z,96164.38
2023-09-16T02:15:40.755Z,96162.34
2023-09-16T02:18:27.864Z,96172.53
2023-09-16T02:21:16.273Z,96160.34
2023-09-16T02:24:03.010Z,96156.09
2023-09-16T02:26:49.486Z,96152.19
2023-09-16T02:29:36.260Z,96149.75
2023-09-16T02:32:22.683Z,96153.59
2023-09-16T02:35:09.988Z,96152.19
2023-09-16T02:37:56.283Z,96139.94
2023-09-16T02:40:43.720Z,96151.31
2023-09-16T02:43:32.608Z,96143.22
2023-09-16T02:46:19.683Z,96149.28
2023-09-16T02:49:06.281Z,96146.47
2023-09-16T02:51:53.240Z,96144.03
2023-09-16T02:54:39.672Z,96137.94
2023-09-16T02:57:25.958Z,96145.84
2023-09-16T03:00:14.695Z,96145.84
2023-09-16T03:03:01.569Z,96142.56
2023-09-16T03:05:48.629Z,96146.19
2023-09-16T03:08:36.232Z,96156.09
2023-09-16T03:11:23.420Z,96151.25
2023-09-16T03:14:10.523Z,96149.81
2023-09-16T03:16:57.533Z,96156.09
2023-09-16T03:19:43.917Z,96160.53
2023-09-16T03:22:32.711Z,96163.09
2023-09-16T03:25:19.250Z,96163.88
2023-09-16T03:28:06.157Z,96151.00
2023-09-16T03:30:53.365Z,96153.94
2023-09-16T03:33:40.289Z,96161.16
2023-09-16T03:36:28.555Z,96156.66
2023-09-16T03:39:16.361Z,96160.88
2023-09-16T03:42:03.042Z,96159.44
2023-09-16T03:44:49.398Z,96167.88
2023-09-16T03:47:36.608Z,96164.19
2023-09-16T03:50:23.199Z,96155.66
2023-09-16T03:53:11.934Z,96150.59
2023-09-16T03:56:00.818Z,96159.09
2023-09-16T03:58:47.690Z,96159.09
2023-09-16T04:01:42.848Z,96148.75
2023-09-16T04:04:29.180Z,96161.47
2023-09-16T04:07:16.017Z,96163.47
2023-09-16T04:10:03.149Z,96159.66
2023-09-16T04:12:50.954Z,96157.03
2023-09-16T04:15:37.768Z,96153.78
2023-09-16T04:18:25.833Z,96159.84
2023-09-16T04:21:11.840Z,96157.84
2023-09-16T04:23:58.849Z,96154.59
2023-09-16T04:26:45.059Z,96167.09
2023-09-16T04:29:32.884Z,96169.09
2023-09-16T04:32:19.509Z,96169.09
2023-09-16T04:35:07.096Z,96164.13
2023-09-16T04:37:54.705Z,96166.81
2023-09-16T04:40:45.561Z,96156.09
2023-09-16T04:43:31.870Z,96161.13
2023-09-16T04:46:19.809Z,96160.91
2023-09-16T04:49:07.266Z,96165.44
2023-09-16T04:51:55.199Z,96163.22
2023-09-16T04:54:43.561Z,96162.06
2023-09-16T04:57:30.245Z,96164.88
2023-09-16T05:00:19.343Z,96155.34
2023-09-16T05:03:06.726Z,96156.16
2023-09-16T05:05:55.024Z,96157.81
2023-09-16T05:08:45.053Z,96152.34
2023-09-16T05:11:31.976Z,96157.84
2023-09-16T05:14:21.478Z,96157.66
2023-09-16T05:17:08.607Z,96157.47
2023-09-16T05:19:57.743Z,96154.47
2023-09-16T05:22:48.369Z,96148.44
2023-09-16T05:25:35.893Z,96153.72
2023-09-16T05:28:22.928Z,96154.97
2023-09-16T05:31:10.374Z,96143.88
2023-09-16T05:33:59.100Z,96157.84
2023-09-16T05:36:45.427Z,96157.47
2023-09-16T05:39:34.112Z,96159.69
2023-09-16T05:42:21.230Z,96161.59
2023-09-16T05:45:09.733Z,96161.19
2023-09-16T05:47:56.500Z,96154.91
2023-09-16T05:50:44.095Z,96158.63
2023-09-16T05:53:34.259Z,96157.25
2023-09-16T05:56:30.027Z,96157.47
2023-09-16T05:59:21.056Z,96155.88
2023-09-16T06:02:13.452Z,96151.03
2023-09-16T06:05:00.944Z,96153.09
2023-09-16T06:07:47.797Z,96152.56
2023-09-16T06:10:35.816Z,96149.34
2023-09-16T06:13:22.699Z,96148.56
2023-09-16T06:16:09.233Z,96142.53
2023-09-16T06:18:56.691Z,96140.94
2023-09-16T06:21:43.607Z,96141.16
2023-09-16T06:24:31.807Z,96145.06
2023-09-16T06:27:18.976Z,96139.19
2023-09-16T06:30:05.838Z,96143.03
2023-09-16T06:32:55.607Z,96136.19
2023-09-16T06:35:42.484Z,96137.41
2023-09-16T06:38:30.384Z,96142.53
2023-09-16T06:41:16.773Z,96138.28
2023-09-16T06:44:03.433Z,96135.88
2023-09-16T06:46:50.112Z,96134.69
2023-09-16T06:49:36.782Z,96136.13
2023-09-16T06:52:24.121Z,96128.03
2023-09-16T06:55:10.855Z,96135.41
2023-09-16T06:57:57.425Z,96133.78
2023-09-16T07:00:44.012Z,96130.94
2023-09-16T07:03:30.966Z,96138.09
2023-09-16T07:06:18.213Z,96133.84
2023-09-16T07:09:04.367Z,96128.34
2023-09-16T07:11:50.713Z,96132.22
2023-09-16T07:14:39.763Z,96133.63
2023-09-16T07:17:26.969Z,96125.50
2023-09-16T07:20:15.914Z,96130.56
2023-09-16T07:23:02.627Z,96127.72
2023-09-16T07:25:57.493Z,96128.75
2023-09-16T07:28:43.646Z,96128.31
2023-09-16T07:31:31.187Z,96125.66
2023-09-16T07:34:17.945Z,96122.63
2023-09-16T07:37:05.665Z,96119.53
2023-09-16T07:39:52.497Z,96117.66
2023-09-16T07:42:38.981Z,96120.50
2023-09-16T07:45:26.110Z,96121.28
2023-09-16T07:48:12.437Z,96120.44
2023-09-16T07:50:59.491Z,96122.84
2023-09-16T07:53:45.923Z,96119.78
2023-09-16T07:56:32.911Z,96122.19
2023-09-16T07:59:21.451Z,96122.19
2023-09-16T08:02:08.771Z,96113.75
2023-09-16T08:04:55.055Z,96128.78
2023-09-16T08:07:42.567Z,96117.78
2023-09-16T08:10:29.375Z,96116.72
2023-09-16T08:13:16.108Z,96124.19
2023-09-16T08:16:04.035Z,96128.81
2023-09-16T08:18:51.358Z,96124.03
2023-09-16T08:21:38.681Z,96125.41
2023-09-16T08:24:25.274Z,96129.25
2023-09-16T08:27:12.249Z,96131.47
2023-09-16T08:29:58.613Z,96126.38
2023-09-16T08:32:46.123Z,96123.03
2023-09-16T08:35:32.630Z,96111.13
2023-09-16T08:38:19.586Z,96119.81
2023-09-16T08:41:17.868Z,96120.72
2023-09-16T08:44:07.225Z,96112.50
2023-09-16T08:47:08.866Z,96108.94
2023-09-16T08:50:06.711Z,96108.06
2023-09-16T08:52:57.009Z,96114.31
2023-09-16T08:55:49.892Z,96115.88
2023-09-16T08:58:42.280Z,96127.22
2023-09-16T09:01:29.306Z,96119.38
2023-09-16T09:04:17.302Z,96123.78
2023-09-16T09:07:04.443Z,96122.84
2023-09-16T09:09:52.184Z,96118.91
2023-09-16T09:12:41.109Z,96124.00
2023-09-16T09:15:28.072Z,96113.31
2023-09-16T09:18:18.978Z,96113.94
2023-09-16T09:21:06.559Z,96121.34
2023-09-16T09:23:52.605Z,96121.28
2023-09-16T09:26:39.779Z,96112.75
2023-09-16T09:29:26.047Z,96112.25
2023-09-16T09:32:12.012Z,96119.88
2023-09-16T09:35:08.460Z,96115.41
2023-09-16T09:37:54.665Z,96109.78
2023-09-16T09:40:57.849Z,96112.53
2023-09-16T09:43:44.238Z,96105.06
2023-09-16T09:46:31.119Z,96103.88
2023-09-16T09:49:20.436Z,96103.59
2023-09-16T09:52:07.186Z,96092.56
2023-09-16T09:54:54.593Z,96099.34
2023-09-16T09:57:41.692Z,96095.94
2023-09-16T10:00:28.199Z,96096.34
2023-09-16T10:03:15.937Z,96091.53
2023-09-16T10:06:15.281Z,96089.06
2023-09-16T10:09:02.200Z,96086.22
2023-09-16T10:11:49.975Z,96084.97
2023-09-16T10:14:36.130Z,96086.47
2023-09-16T10:17:24.353Z,96080.16
2023-09-16T10:20:14.613Z,96077.09
2023-09-16T10:23:03.047Z,96069.81
2023-09-16T10:25:49.811Z,96061.88
2023-09-16T10:28:48.568Z,96071.25
2023-09-16T10:31:35.320Z,96071.81
2023-09-16T10:34:31.240Z,96068.31
2023-09-16T10:37:19.139Z,96061.03
2023-09-16T10:40:08.720Z,96074.28
2023-09-16T10:42:57.745Z,96063.72
2023-09-16T10:45:46.280Z,96069.22
2023-09-16T10:48:33.046Z,96076.53
2023-09-16T10:51:25.090Z,96065.84
2023-09-16T10:54:43.049Z,96060.31
2023-09-16T10:57:43.372Z,96051.69
2023-09-16T11:00:39.976Z,96049.72
2023-09-16T11:03:41.847Z,96053.13
2023-09-16T11:06:28.008Z,96056.84
2023-09-16T11:09:16.778Z,96059.75
2023-09-16T11:12:04.898Z,96052.19
2023-09-16T11:14:51.724Z,96058.59
2023-09-16T11:17:41.601Z,96058.25
2023-09-16T11:20:33.861Z,96056.84
2023-09-16T11:23:20.208Z,96052.06
2023-09-16T11:26:07.954Z,96049.69
2023-09-16T11:28:56.160Z,96053.88
2023-09-16T11:31:42.994Z,96052.66
2023-09-16T11:34:30.868Z,96051.94
2023-09-16T11:38:14.783Z,96052.66
2023-09-16T11:41:11.822Z,96044.44
2023-09-16T11:48:55.372Z,96041.16
2023-09-16T11:51:42.076Z,96034.56
2023-09-16T11:55:20.323Z,96029.31
2023-09-16T11:58:06.737Z,96024.78
2023-09-16T12:00:53.057Z,96024.41
2023-09-16T12:03:43.447Z,96024.06
2023-09-16T12:06:30.706Z,96022.47
2023-09-16T12:09:19.218Z,96027.28
2023-09-16T12:12:07.092Z,96013.06
2023-09-16T12:14:54.074Z,96016.84
2023-09-16T12:17:40.958Z,96014.06
2023-09-16T12:20:26.955Z,96013.16
2023-09-16T12:23:14.633Z,96011.38
2023-09-16T12:26:01.551Z,96008.84
2023-09-16T12:28:48.489Z,96002.59
2023-09-16T12:31:36.029Z,96005.53
2023-09-16T12:34:23.008Z,96002.16
2023-09-16T12:37:09.633Z,95999.69
2023-09-16T12:39:56.119Z,95996.59
2023-09-16T12:42:43.315Z,95997.09
2023-09-16T12:45:30.298Z,95991.25
2023-09-16T12:48:17.045Z,95999.66
2023-09-16T12:51:05.231Z,95999.91
2023-09-16T12:53:54.433Z,96000.00
2023-09-16T12:56:50.841Z,95997.66
2023-09-16T12:59:37.819Z,95998.66
2023-09-16T13:02:24.859Z,95996.44
2023-09-16T13:05:20.151Z,95988.81
2023-09-16T13:08:06.731Z,95986.53
2023-09-16T13:10:56.510Z,95995.28
2023-09-16T13:13:42.649Z,95986.38
2023-09-16T13:16:36.356Z,95990.50
2023-09-16T13:19:22.879Z,95981.00
2023-09-16T13:22:14.094Z,95982.03
2023-09-16T13:25:00.601Z,95981.75
2023-09-16T13:27:47.538Z,95983.41
2023-09-16T13:30:39.454Z,95974.25
2023-09-16T13:33:55.734Z,95973.97
2023-09-16T13:36:43.364Z,95974.75
2023-09-16T13:39:41.696Z,95975.63
2023-09-16T13:42:27.833Z,95974.84
2023-09-16T13:45:14.472Z,95965.06
2023-09-16T13:48:13.031Z,95969.97
2023-09-16T13:50:59.476Z,95969.44
2023-09-16T13:53:46.315Z,95972.03
2023-09-16T13:56:33.216Z,95966.09
2023-09-16T13:59:19.758Z,95969.66
2023-09-16T14:02:07.105Z,95971.78
2023-09-16T14:04:53.257Z,95969.59
2023-09-16T14:07:40.390Z,95963.75
2023-09-16T14:10:29.801Z,95964.78
2023-09-16T14:13:16.899Z,95962.38
2023-09-16T14:16:03.513Z,95960.72
2023-09-16T14:18:49.877Z,95948.13
2023-09-16T14:21:36.202Z,95956.84
2023-09-16T14:24:23.865Z,95948.00
2023-09-16T14:27:11.606Z,95948.22
2023-09-16T14:33:27.319Z,95951.56
2023-09-16T14:36:14.026Z,95942.81
2023-09-16T14:38:59.804Z,95940.13
2023-09-16T14:41:48.755Z,95936.13
2023-09-16T14:44:36.045Z,95927.34
2023-09-16T14:47:23.012Z,95933.03
2023-09-16T14:50:09.964Z,95936.59
2023-09-16T14:52:57.799Z,95938.28
2023-09-16T14:55:45.705Z,95932.41
2023-09-16T14:58:32.451Z,95924.09
2023-09-16T15:01:23.277Z,95927.06
2023-09-16T15:04:11.142Z,95931.44
2023-09-16T15:06:57.311Z,95930.34
2023-09-16T15:09:44.529Z,95933.09
2023-09-16T15:12:30.963Z,95933.69
2023-09-16T15:15:17.794Z,95928.88
2023-09-16T15:18:04.311Z,95934.28
2023-09-16T15:20:53.203Z,95926.28
2023-09-16T15:23:39.245Z,95922.03
2023-09-16T15:26:26.013Z,95930.88
2023-09-16T15:29:12.521Z,95925.25
2023-09-16T15:32:24.738Z,95930.59
2023-09-16T15:35:06.657Z,95933.31
2023-09-16T15:37:53.163Z,95929.56
2023-09-16T15:40:39.804Z,95942.47
2023-09-16T15:43:26.301Z,95943.53
2023-09-16T15:46:12.987Z,95936.28
2023-09-16T15:49:00.627Z,95944.06
2023-09-16T15:51:47.675Z,95943.00
2023-09-16T15:54:34.406Z,95937.09
2023-09-16T15:57:21.488Z,95945.66
2023-09-16T16:00:09.736Z,95937.63
2023-09-16T16:02:56.673Z,95938.94
2023-09-16T16:05:43.174Z,95934.69
2023-09-16T16:08:29.999Z,95926.09
2023-09-16T16:11:17.875Z,95937.63
2023-09-16T16:14:08.343Z,95933.28
2023-09-16T16:17:06.332Z,95935.19
2023-09-16T16:20:01.427Z,95945.63
2023-09-16T16:22:48.296Z,95947.72
2023-09-16T16:25:35.081Z,95939.66
2023-09-16T16:28:21.964Z,95939.38
2023-09-16T16:31:08.596Z,95945.81
2023-09-16T16:33:54.938Z,95951.94
2023-09-16T16:36:41.259Z,95952.44
2023-09-16T16:39:30.035Z,95950.47
2023-09-16T16:42:17.458Z,95949.00
2023-09-16T16:45:04.947Z,95961.69
2023-09-16T16:47:51.336Z,95956.63
2023-09-16T16:50:38.104Z,95960.16
2023-09-16T16:53:24.109Z,95961.09
2023-09-16T16:56:09.993Z,95961.38
2023-09-16T16:58:56.499Z,95961.00
2023-09-16T17:01:44.002Z,95969.31
2023-09-16T17:04:31.486Z,95961.63
2023-09-16T17:07:18.346Z,95963.69
2023-09-16T17:10:06.210Z,95967.03
2023-09-16T17:12:52.088Z,95953.81
2023-09-16T17:15:42.109Z,95957.34
2023-09-16T17:18:28.364Z,95960.88
2023-09-16T17:21:15.024Z,95963.56
2023-09-16T17:24:02.697Z,95959.06
2023-09-16T17:26:51.857Z,95963.50
2023-09-16T17:29:38.050Z,95972.22
2023-09-16T17:32:25.497Z,95971.41
2023-09-16T17:35:12.025Z,95975.44
2023-09-16T17:37:58.011Z,95977.13
2023-09-16T17:40:45.033Z,95980.75
2023-09-16T17:43:31.082Z,95974.69
2023-09-16T17:46:18.048Z,95979.91
2023-09-16T17:49:04.257Z,95977.06
2023-09-16T17:51:51.349Z,95993.84
2023-09-16T17:54:37.126Z,95991.13
2023-09-16T17:57:27.015Z,95994.34
2023-09-16T18:00:14.298Z,95999.09
2023-09-16T18:03:04.733Z,95990.44
2023-09-16T18:05:51.837Z,95998.44
2023-09-16T18:08:38.781Z,95996.81
2023-09-16T18:11:25.776Z,96002.59
2023-09-16T18:14:11.751Z,96012.22
2023-09-16T18:16:58.850Z,96013.38
2023-09-16T18:19:45.341Z,96014.03
2023-09-16T18:22:33.214Z,96017.41
2023-09-16T18:25:20.455Z,96023.66
2023-09-16T18:28:08.453Z,96013.47
2023-09-16T18:30:54.967Z,96019.03
2023-09-16T18:33:41.775Z,96024.13
2023-09-16T18:36:31.320Z,96019.50
2023-09-16T18:39:18.330Z,96024.22
2023-09-16T18:42:06.663Z,96020.44
2023-09-16T18:44:53.479Z,96019.25
2023-09-16T18:47:41.398Z,96017.28
2023-09-16T18:50:27.871Z,96023.28
2023-09-16T18:53:14.948Z,96020.53
2023-09-16T18:56:01.353Z,96025.34
2023-09-16T18:58:49.001Z,96026.03
2023-09-16T19:01:36.454Z,96032.25
2023-09-16T19:04:24.188Z,96036.97
2023-09-16T19:07:11.158Z,96037.66
2023-09-16T19:09:58.307Z,96035.25
2023-09-16T19:12:45.097Z,96042.63
2023-09-16T19:15:31.196Z,96040.06
2023-09-16T19:18:17.914Z,96040.72
2023-09-16T19:21:04.653Z,96043.03
2023-09-16T19:23:51.857Z,96043.38
2023-09-16T19:26:40.793Z,96043.00
2023-09-16T19:29:28.871Z,96044.72
2023-09-16T19:32:15.561Z,96041.94
2023-09-16T19:35:02.805Z,96043.75
2023-09-16T19:37:49.257Z,96045.84
2023-09-16T19:40:36.793Z,96039.97
2023-09-16T19:43:23.581Z,96033.34
2023-09-16T19:46:10.729Z,96038.84
2023-09-16T19:48:58.270Z,96033.19
2023-09-16T19:51:44.397Z,96041.47
2023-09-16T19:54:31.318Z,96045.66
2023-09-16T19:57:18.441Z,96044.56
2023-09-16T20:00:05.846Z,96045.44
2023-09-16T20:02:53.730Z,96038.97
2023-09-16T20:05:41.267Z,96041.16
2023-09-16T20:08:27.980Z,96046.25
2023-09-16T20:11:14.626Z,96049.72
2023-09-16T20:14:01.079Z,96041.75
2023-09-16T20:16:48.239Z,96042.22
2023-09-16T20:19:38.001Z,96041.38
2023-09-16T20:22:24.864Z,96032.94
2023-09-16T20:25:14.968Z,96041.03
2023-09-16T20:28:02.763Z,96046.63
2023-09-16T20:30:49.335Z,96042.56
2023-09-16T20:33:36.510Z,96045.81
2023-09-16T20:36:23.149Z,96041.31
2023-09-16T20:39:13.975Z,96036.44
2023-09-16T20:42:00.788Z,96032.63
2023-09-16T20:44:47.244Z,96029.16
2023-09-16T20:47:33.837Z,96035.63
2023-09-16T20:50:20.812Z,96035.63
2023-09-16T20:53:07.791Z,96034.63
2023-09-16T20:55:55.357Z,96025.03
2023-09-16T20:58:44.398Z,96026.06
2023-09-16T21:01:31.533Z,96031.59
2023-09-16T21:04:18.750Z,96030.78
2023-09-16T21:07:05.993Z,96031.59
2023-09-16T21:09:52.922Z,96029.16
2023-09-16T21:12:42.385Z,96025.94
2023-09-16T21:15:28.868Z,96026.13
2023-09-16T21:18:16.219Z,96019.00
2023-09-16T21:21:02.271Z,96019.81
2023-09-16T21:23:49.279Z,96019.00
2023-09-16T21:26:36.175Z,96019.81
2023-09-16T21:29:23.606Z,96026.72
2023-09-16T21:32:12.373Z,96016.72
2023-09-16T21:34:59.667Z,96022.22
2023-09-16T21:37:46.452Z,96024.88
2023-09-16T21:40:32.878Z,96020.63
2023-09-16T21:43:21.613Z,96025.09
2023-09-16T21:46:10.737Z,96021.84
2023-09-16T21:48:56.902Z,96023.94
2023-09-16T21:51:46.241Z,96023.34
2023-09-16T21:54:35.397Z,96020.47
2023-09-16T21:57:21.774Z,96024.97
2023-09-16T22:00:18.949Z,96015.38
2023-09-16T22:03:05.677Z,96018.03
2023-09-16T22:05:54.456Z,96018.03
2023-09-16T22:08:41.171Z,96022.75
2023-09-16T22:11:28.232Z,96012.56
2023-09-16T22:14:14.620Z,96020.75
2023-09-16T22:17:01.450Z,96020.75
2023-09-16T22:19:48.193Z,96014.06
2023-09-16T22:22:35.455Z,96017.53
2023-09-16T22:25:23.341Z,96017.16
2023-09-16T22:28:11.276Z,96023.69
2023-09-16T22:30:58.800Z,96017.44
2023-09-16T22:33:45.734Z,96021.09
2023-09-16T22:36:31.830Z,96022.34
2023-09-16T22:39:18.496Z,96022.97
2023-09-16T22:42:06.036Z,96029.28
2023-09-16T22:45:04.256Z,96028.47
2023-09-16T22:47:52.659Z,96030.16
2023-09-16T22:50:39.222Z,96031.19
2023-09-16T22:53:25.723Z,96038.31
2023-09-16T22:56:11.658Z,96033.22
2023-09-16T22:58:58.491Z,96038.53
2023-09-16T23:01:44.396Z,96039.13
2023-09-16T23:04:31.137Z,96047.69
2023-09-16T23:07:18.149Z,96038.09
2023-09-16T23:10:05.569Z,96033.00
2023-09-16T23:12:51.894Z,96040.16
2023-09-16T23:15:38.887Z,96041.19
2023-09-16T23:18:25.360Z,96040.19
2023-09-16T23:21:12.773Z,96048.19
2023-09-16T23:23:58.999Z,96048.41
2023-09-16T23:26:46.517Z,96052.47
2023-09-16T23:29:33.431Z,96053.91
2023-09-16T23:32:19.901Z,96056.09
2023-09-16T23:35:08.052Z,96054.03
2023-09-16T23:37:55.044Z,96045.53
2023-09-16T23:40:43.067Z,96044.59
2023-09-16T23:43:29.548Z,96043.16
2023-09-16T23:46:16.319Z,96050.94
2023-09-16T23:49:05.110Z,96050.75
2023-09-16T23:51:54.442Z,96046.34
2023-09-16T23:54:45.098Z,96051.28
2023-09-16T23:57:31.428Z,96048.72
